Saturday, November 18, 2017, 9:34 PM GMT
Back to Local

CWNE, North Point, Prince Edward Island

Location: , , Canada Lat: 47.083
Local Time: 9:34 PM GMT (21:34 GMT) Lon: -64
Time Zone: GMT Elev: 49 ft

Show me the last for .
Show Coded

Time T Td Feel RH Dir Speed Gust Alt SLP Vis Weather Sky Remarks
2017-11-18 21:00 32 27 21 81 290° 15 - - 29.75 0 Peak wind: 19 mph (17 kts) from 280° at 55 min
2017-11-18 20:00 32 26 21 78 310° 16 - - 29.72 0 Peak wind: 23 mph (20 kts) from 290° at 14 min
2017-11-18 19:00 32 27 20 80 300° 21 - - 29.72 0 Peak wind: 26 mph (23 kts) from 300° at 14 min
2017-11-18 18:00 32 27 19 80 300° 23 - - 29.70 0 Peak wind: 28 mph (25 kts) from 300° at 07 min
2017-11-18 17:00 32 26 18 80 290° 26 - - 29.70 0 Peak wind: 33 mph (29 kts) from 290° at 01 min
2017-11-18 16:00 31 27 17 82 290° 29 - - 29.69 0 Peak wind: 35 mph (31 kts) from 290° at 29 min
2017-11-18 15:00 31 27 14 86 290° 31 39 - 29.68 0 Peak wind: 39 mph (34 kts) from 290° at 56 min
1-hr Precip Total: 0.02"
2017-11-18 14:00 30 27 13 86 290° 33 40 - 29.67 0 Peak wind: 40 mph (35 kts) from 290° at 38 min
2017-11-18 13:00 31 27 14 85 290° 32 39 - 29.65 0 Peak wind: 40 mph (35 kts) from 280° at 09 min
2017-11-18 12:00 30 26 13 84 290° 35 40 - 29.62 0 Peak wind: 42 mph (37 kts) from 280° at 04 min
2017-11-18 11:00 30 26 12 84 290° 38 45 - 29.58 0 Peak wind: 47 mph (41 kts) from 290° at 17 min
2017-11-18 10:00 30 26 13 83 290° 38 44 - 29.55 0 Peak wind: 47 mph (41 kts) from 290° at 21 min
2017-11-18 09:00 31 27 14 82 290° 39 47 - 29.52 0 Peak wind: 47 mph (41 kts) from 290° at 57 min
2017-11-18 08:00 31 27 14 83 290° 40 47 - 29.49 0 Peak wind: 49 mph (43 kts) from 300° at 04 min
2017-11-18 07:00 32 27 14 83 290° 43 52 - 29.46 0 Peak wind: 52 mph (46 kts) from 290° at 13 min
1-hr Precip Total: 0.04"
2017-11-18 06:00 32 27 14 82 290° 41 49 - 29.44 0 Peak wind: 51 mph (45 kts) from 300° at 25 min
2017-11-18 05:00 34 29 17 82 300° 43 49 - 29.41 0 Peak wind: 49 mph (43 kts) from 300° at 34 min
2017-11-18 04:00 35 31 18 85 300° 38 46 - 29.39 0 Peak wind: 47 mph (41 kts) from 300° at 31 min
2017-11-18 03:00 36 30 20 79 310° 39 46 - 29.36 0 Peak wind: 46 mph (40 kts) from 300° at 45 min
2017-11-18 02:00 35 30 21 80 310° 38 - - 29.35 0 Peak wind: 43 mph (38 kts) from 310° at 34 min
1-hr Precip Total: 0.03"
2017-11-18 01:00 34 31 17 87 310° 39 48 - 29.32 0 Peak wind: 48 mph (42 kts) from 310° at 59 min
2017-11-18 00:00 33 31 17 92 300° 38 45 - 29.30 0 Peak wind: 50 mph (44 kts) from 310° at 02 min
2017-11-17 23:00 33 32 17 93 300° 38 47 - 29.26 0 Peak wind: 48 mph (42 kts) from 310° at 46 min
2017-11-17 22:00 34 31 17 91 300° 39 46 - 29.22 0 Peak wind: 49 mph (43 kts) from 310° at 23 min
1-hr Precip Total: 0.02"

Support USWX by starting your Amazon purchase here.